createdAt,value
2023-01-18T00:10:04.021Z,100.00
2023-01-18T00:12:30.754Z,100.00
2023-01-18T00:14:57.417Z,100.00
2023-01-18T00:17:24.129Z,100.00
2023-01-18T00:19:50.797Z,100.00
2023-01-18T00:22:17.483Z,100.00
2023-01-18T00:24:44.091Z,100.00
2023-01-18T00:27:10.791Z,100.00
2023-01-18T00:29:37.425Z,100.00
2023-01-18T00:32:04.550Z,100.00
2023-01-18T00:34:31.618Z,100.00
2023-01-18T00:36:58.336Z,100.00
2023-01-18T00:39:24.963Z,100.00
2023-01-18T00:42:10.499Z,100.00
2023-01-18T00:44:37.282Z,100.00
2023-01-18T00:47:03.959Z,100.00
2023-01-18T00:49:30.679Z,100.00
2023-01-18T00:51:58.789Z,100.00
2023-01-18T00:54:25.575Z,100.00
2023-01-18T00:56:52.225Z,100.00
2023-01-18T00:59:18.965Z,100.00
2023-01-18T01:01:45.707Z,100.00
2023-01-18T01:04:31.556Z,100.00
2023-01-18T01:06:58.218Z,100.00
2023-01-18T01:09:26.154Z,100.00
2023-01-18T01:12:12.155Z,100.00
2023-01-18T01:15:00.027Z,100.00
2023-01-18T01:17:46.809Z,100.00
2023-01-18T01:20:32.309Z,100.00
2023-01-18T01:23:27.000Z,100.00
2023-01-18T01:26:09.170Z,100.00
2023-01-18T01:28:39.906Z,100.00
2023-01-18T01:31:08.278Z,100.00
2023-01-18T01:33:35.610Z,100.00
2023-01-18T01:36:04.878Z,100.00
2023-01-18T01:38:31.722Z,100.00
2023-01-18T01:41:08.992Z,100.00
2023-01-18T01:43:49.149Z,100.00
2023-01-18T01:46:25.869Z,100.00
2023-01-18T01:48:57.601Z,100.00
2023-01-18T01:51:24.328Z,100.00
2023-01-18T01:53:51.030Z,100.00
2023-01-18T01:56:18.771Z,100.00
2023-01-18T01:58:45.562Z,100.00
2023-01-18T02:01:12.324Z,100.00
2023-01-18T02:03:39.399Z,100.00
2023-01-18T02:06:24.736Z,100.00
2023-01-18T02:08:51.445Z,100.00
2023-01-18T02:11:18.068Z,100.00
2023-01-18T02:13:44.753Z,100.00
2023-01-18T02:16:34.181Z,100.00
2023-01-18T02:19:25.917Z,100.00
2023-01-18T02:21:56.236Z,100.00
2023-01-18T02:24:32.321Z,100.00
2023-01-18T02:27:22.439Z,100.00
2023-01-18T02:30:10.135Z,100.00
2023-01-18T02:33:03.403Z,100.00
2023-01-18T02:35:54.571Z,100.00
2023-01-18T02:38:41.998Z,100.00
2023-01-18T02:41:21.990Z,100.00
2023-01-18T02:44:08.804Z,100.00
2023-01-18T02:46:35.882Z,100.00
2023-01-18T02:49:18.021Z,100.00
2023-01-18T02:51:44.701Z,100.00
2023-01-18T02:54:11.854Z,100.00
2023-01-18T02:56:42.672Z,100.00
2023-01-18T02:59:18.475Z,100.00
2023-01-18T03:01:59.138Z,100.00
2023-01-18T03:04:37.188Z,100.00
2023-01-18T03:56:52.929Z,100.00
2023-01-18T03:59:19.640Z,100.00
2023-01-18T04:01:48.239Z,100.00
2023-01-18T04:04:15.124Z,100.00
2023-01-18T04:06:42.495Z,100.00
2023-01-18T04:09:09.467Z,100.00
2023-01-18T04:11:36.310Z,100.00
2023-01-18T04:14:02.974Z,100.00
2023-01-18T04:16:29.630Z,100.00
2023-01-18T04:18:56.297Z,100.00
2023-01-18T04:21:23.095Z,100.00
2023-01-18T04:23:49.745Z,100.00
2023-01-18T04:26:19.347Z,100.00
2023-01-18T04:28:46.135Z,100.00
2023-01-18T04:31:12.790Z,100.00
2023-01-18T04:33:39.553Z,100.00
2023-01-18T04:36:06.906Z,100.00
2023-01-18T04:38:33.549Z,100.00
2023-01-18T04:41:06.549Z,100.00
2023-01-18T04:43:33.256Z,100.00
2023-01-18T04:46:00.221Z,100.00
2023-01-18T04:48:26.886Z,100.00
2023-01-18T04:50:53.557Z,100.00
2023-01-18T04:53:20.532Z,100.00
2023-01-18T04:55:47.213Z,100.00
2023-01-18T04:58:15.103Z,100.00
2023-01-18T05:00:41.909Z,100.00
2023-01-18T05:03:09.656Z,100.00
2023-01-18T05:05:36.589Z,100.00
2023-01-18T05:08:03.634Z,100.00
2023-01-18T05:10:30.453Z,100.00
2023-01-18T05:12:57.691Z,100.00
2023-01-18T05:15:24.503Z,100.00
2023-01-18T05:17:51.204Z,100.00
2023-01-18T05:20:18.070Z,100.00
2023-01-18T05:22:44.833Z,100.00
2023-01-18T05:25:11.471Z,100.00
2023-01-18T05:27:38.265Z,100.00
2023-01-18T05:30:06.846Z,100.00
2023-01-18T05:32:33.724Z,100.00
2023-01-18T05:35:00.416Z,100.00
2023-01-18T05:37:27.057Z,100.00
2023-01-18T05:39:53.705Z,100.00
2023-01-18T05:42:20.446Z,100.00
2023-01-18T05:44:47.117Z,100.00
2023-01-18T05:47:13.863Z,100.00
2023-01-18T05:49:41.943Z,100.00
2023-01-18T05:52:08.741Z,100.00
2023-01-18T05:54:35.396Z,100.00
2023-01-18T05:57:02.421Z,100.00
2023-01-18T05:59:29.140Z,100.00
2023-01-18T06:01:56.711Z,100.00
2023-01-18T06:04:23.539Z,100.00
2023-01-18T06:06:50.328Z,100.00
2023-01-18T06:09:17.057Z,100.00
2023-01-18T06:11:43.783Z,100.00
2023-01-18T06:14:10.440Z,100.00
2023-01-18T06:16:37.106Z,100.00
2023-01-18T06:19:03.822Z,100.00
2023-01-18T06:21:30.445Z,100.00
2023-01-18T06:23:57.222Z,100.00
2023-01-18T08:14:51.877Z,100.00
2023-01-18T08:17:18.700Z,100.00
2023-01-18T08:19:45.650Z,100.00
2023-01-18T08:22:12.285Z,100.00
2023-01-18T08:24:38.939Z,100.00
2023-01-18T08:27:05.590Z,100.00
2023-01-18T08:29:32.207Z,100.00
2023-01-18T08:32:00.798Z,100.00
2023-01-18T08:34:27.455Z,100.00
2023-01-18T08:36:54.119Z,100.00
2023-01-18T08:39:21.127Z,100.00
2023-01-18T08:41:49.572Z,100.00
2023-01-18T08:44:16.388Z,100.00
2023-01-18T08:46:43.091Z,100.00
2023-01-18T08:49:10.410Z,100.00
2023-01-18T08:51:37.175Z,100.00
2023-01-18T08:54:06.613Z,100.00
2023-01-18T08:56:33.351Z,100.00
2023-01-18T08:59:02.519Z,100.00
2023-01-18T09:01:29.608Z,100.00
2023-01-18T09:03:56.619Z,100.00
2023-01-18T09:06:23.538Z,100.00
2023-01-18T09:08:50.277Z,100.00
2023-01-18T09:11:17.499Z,100.00
2023-01-18T09:13:59.472Z,100.00
2023-01-18T09:16:27.480Z,100.00
2023-01-18T09:18:56.325Z,100.00
2023-01-18T09:21:23.252Z,100.00
2023-01-18T09:23:51.048Z,100.00
2023-01-18T09:26:20.437Z,100.00
2023-01-18T09:28:48.819Z,100.00
2023-01-18T09:31:15.720Z,100.00
2023-01-18T09:33:51.213Z,100.00
2023-01-18T09:36:21.544Z,100.00
2023-01-18T09:38:48.410Z,100.00
2023-01-18T16:20:54.591Z,100.00
2023-01-18T16:23:23.131Z,100.00
2023-01-18T16:26:02.495Z,100.00
2023-01-18T16:28:29.309Z,100.00
2023-01-18T16:30:56.242Z,100.00
2023-01-18T16:33:23.855Z,100.00
2023-01-18T16:35:50.823Z,100.00
2023-01-18T16:38:18.885Z,100.00
2023-01-18T16:40:48.678Z,100.00
2023-01-18T16:43:26.876Z,100.00
2023-01-18T16:45:55.189Z,100.00
2023-01-18T16:48:23.360Z,100.00
2023-01-18T16:50:50.177Z,100.00
2023-01-18T16:53:17.662Z,100.00
2023-01-18T16:55:44.983Z,100.00
2023-01-18T16:58:15.641Z,100.00
2023-01-18T17:00:59.176Z,100.00
2023-01-18T17:03:26.188Z,100.00
2023-01-18T17:05:53.234Z,100.00
2023-01-18T17:08:19.927Z,99.92
2023-01-18T17:10:47.667Z,99.93
2023-01-18T17:13:14.590Z,99.70
2023-01-18T17:15:41.888Z,99.36
2023-01-18T17:18:13.558Z,99.10
2023-01-18T17:20:40.337Z,98.86
2023-01-18T17:23:07.053Z,98.55
2023-01-18T17:25:33.970Z,98.39
2023-01-18T17:28:01.056Z,98.04
2023-01-18T17:30:27.993Z,97.91
2023-01-18T17:32:54.944Z,97.84
2023-01-18T17:35:22.921Z,97.50
2023-01-18T17:37:54.581Z,97.41
2023-01-18T17:40:38.660Z,97.49
2023-01-18T22:11:03.542Z,100.00
2023-01-18T22:13:30.265Z,100.00
2023-01-18T22:15:56.953Z,100.00
2023-01-18T22:18:23.613Z,100.00
2023-01-18T22:20:56.576Z,100.00
2023-01-18T22:23:23.307Z,100.00
2023-01-18T22:25:54.145Z,100.00
2023-01-18T22:28:20.904Z,100.00
2023-01-18T22:30:47.974Z,100.00
2023-01-18T22:33:14.832Z,100.00
2023-01-18T22:35:41.479Z,100.00
2023-01-18T22:38:09.775Z,100.00
2023-01-18T22:40:36.533Z,100.00
2023-01-18T22:43:03.572Z,100.00
2023-01-18T22:45:30.240Z,100.00
2023-01-18T22:47:57.028Z,100.00
2023-01-18T22:50:23.850Z,100.00
2023-01-18T22:52:50.680Z,100.00
2023-01-18T22:55:17.378Z,100.00
2023-01-18T22:57:44.021Z,100.00
2023-01-18T23:00:11.427Z,99.99
2023-01-18T23:02:38.335Z,99.58
2023-01-18T23:05:05.498Z,98.93
2023-01-18T23:07:32.212Z,98.48
2023-01-18T23:09:58.868Z,97.75
2023-01-18T23:12:25.525Z,97.66
2023-01-18T23:15:11.033Z,97.80
2023-01-18T23:17:40.583Z,97.81
2023-01-18T23:20:10.510Z,97.86
2023-01-18T23:22:37.609Z,97.53
2023-01-18T23:25:04.565Z,97.41
2023-01-18T23:27:31.317Z,97.24
2023-01-18T23:29:58.944Z,97.14
2023-01-18T23:32:26.631Z,96.52
2023-01-18T23:34:54.092Z,96.18
2023-01-18T23:37:20.938Z,95.19
2023-01-18T23:40:06.554Z,94.59
2023-01-18T23:42:51.897Z,94.52
2023-01-18T23:45:37.416Z,94.83
2023-01-18T23:48:41.331Z,95.23
2023-01-18T23:51:27.961Z,95.20
2023-01-18T23:54:15.424Z,95.19
2023-01-18T23:56:43.285Z,95.25
2023-01-18T23:59:10.089Z,95.47
